3T5

Fayette Regional Air Center Airport

La Grange, Texas, USA
METAR K3T5 211755Z AUTO 16006KT 10SM SCT018 31/26 A2992 RMK AO2 T03090257 10309 20243
Observed Flight Rules
Jun-21 @ 17:55 UTC (10 minutes ago) Visual Flight Rules
Wind Visibility Clouds
160° at 6 knots 10 miles
  • Scattered at 1,800' AGL
Temperatures Readings
Current 31°C / 88°F
Dewpoint 26°C / 79°F
Humidity 75%
Altimeter 29.92" Hg
Pressure 1013 hPa
Elevation 99
METAR K3T5 211755Z AUTO 16006KT 10SM SCT018 31/26 A2992 RMK AO2 T03090257 10309 20243
Observed Flight Rules
Jun-21 @ 17:55 UTC
(10 minutes ago)
VFR
Wind Visibility
160° at 6 knots 10 miles
Clouds
  • Scattered at 1,800' AGL
Temperature Dewpoint
31°C / 88°F 26°C / 79°F
Humidity Altimeter Pressure
75% 29.92" Hg 1013 hPa